Time;durP1;ratioP1;P1;durP2;ratioP2;P2;SDS_P1;SDS_P2;PMS_P1;PMS_P2;Temp;Humidity;BMP_temperature;BMP_pressure;BME280_temperature;BME280_humidity;BME280_pressure;Samples;Min_cycle;Max_cycle;Signal;HPM_P1;HPM_P2
2022/11/08 00:01:32;;;;;;;5.05;1.77;;;;;;;-140.72;100.00;52948.91;5026396;28;20072;-68
2022/11/08 00:03:59;;;;;;;3.85;1.23;;;;;;;-140.72;100.00;52942.81;5025692;28;20110;-68
2022/11/08 00:14:37;;;;;;;2.55;1.33;;;;;;;-140.72;100.00;52912.38;5026591;28;20470;-67
2022/11/08 00:17:02;;;;;;;8.05;1.13;;;;;;;-140.72;100.00;52906.28;5026063;28;20120;-67
2022/11/08 00:19:28;;;;;;;4.82;0.93;;;;;;;-140.72;100.00;52969.19;5027744;28;20021;-68
2022/11/08 00:21:53;;;;;;;3.20;1.13;;;;;;;-140.72;100.00;52977.31;5027613;28;20087;-67
2022/11/08 00:24:19;;;;;;;4.90;0.90;;;;;;;-140.72;100.00;52963.13;5027559;28;20068;-68
2022/11/08 00:26:44;;;;;;;2.15;1.08;;;;;;;-140.72;100.00;52910.34;5028668;28;20048;-67
2022/11/08 00:29:09;;;;;;;2.97;1.33;;;;;;;-140.72;100.00;52946.88;5031220;28;20029;-67
2022/11/08 00:31:35;;;;;;;5.93;1.95;;;;;;;-140.72;100.00;52950.94;5030540;28;20088;-67
2022/11/08 00:34:00;;;;;;;7.80;1.73;;;;;;;-140.72;100.00;52926.59;5031436;28;20083;-69
2022/11/08 00:36:26;;;;;;;3.47;1.48;;;;;;;-140.72;100.00;52918.47;5032031;28;20445;-68
2022/11/08 00:38:51;;;;;;;2.13;1.00;;;;;;;-140.72;100.00;52952.97;5030958;28;20417;-66
2022/11/08 00:41:16;;;;;;;6.35;1.42;;;;;;;-140.72;100.00;52963.13;5031569;28;20028;-68
2022/11/08 00:43:42;;;;;;;3.20;0.80;;;;;;;-140.72;100.00;52946.88;5031892;28;20032;-69
2022/11/08 00:46:08;;;;;;;2.72;1.27;;;;;;;-140.72;100.00;52930.66;5030940;28;20049;-68
2022/11/08 00:48:33;;;;;;;2.53;1.17;;;;;;;-140.72;100.00;52934.69;5032018;28;20072;-68
2022/11/08 00:51:07;;;;;;;4.40;1.20;;;;;;;-140.72;100.00;52940.78;5030844;28;20121;-68
2022/11/08 00:53:35;;;;;;;8.20;1.77;;;;;;;-140.72;100.00;52957.03;5031223;28;20057;-68
2022/11/08 00:56:02;;;;;;;5.35;1.60;;;;;;;-140.72;100.00;52983.41;5030442;28;20025;-69
2022/11/08 00:58:28;;;;;;;3.10;1.23;;;;;;;-140.72;100.00;52957.03;5028554;28;20064;-68
2022/11/08 01:00:56;;;;;;;6.15;1.50;;;;;;;-140.72;100.00;52934.69;5030602;28;20065;-68
2022/11/08 01:03:23;;;;;;;9.23;2.20;;;;;;;-140.72;100.00;52922.53;5021883;28;20427;-68
2022/11/08 01:05:50;;;;;;;3.63;1.38;;;;;;;-140.72;100.00;52950.94;5031502;28;20117;-67
2022/11/08 01:08:17;;;;;;;2.13;1.08;;;;;;;-140.72;100.00;52975.28;5032411;28;20036;-67
2022/11/08 01:10:45;;;;;;;2.28;1.33;;;;;;;-140.72;100.00;52934.69;5030858;28;20068;-67
2022/11/08 01:13:11;;;;;;;3.47;0.90;;;;;;;-140.72;100.00;52995.59;5021904;28;20116;-67
2022/11/08 01:15:41;;;;;;;4.57;1.48;;;;;;;-140.72;100.00;52934.69;5017084;28;20124;-68
2022/11/08 01:18:08;;;;;;;5.40;2.03;;;;;;;-140.72;100.00;52967.16;5031148;28;20064;-67
2022/11/08 01:20:52;;;;;;;1.40;0.82;;;;;;;-140.72;100.00;52983.41;5031111;28;20030;-67
2022/11/08 01:23:19;;;;;;;1.80;1.15;;;;;;;-140.72;100.00;52985.44;5027785;28;20079;-67
2022/11/08 01:25:46;;;;;;;6.35;1.42;;;;;;;-140.72;100.00;52967.16;5031033;28;20025;-68
2022/11/08 01:28:12;;;;;;;2.50;0.93;;;;;;;-140.72;100.00;52969.19;5031086;28;20394;-68
2022/11/08 01:30:39;;;;;;;1.83;0.88;;;;;;;-140.72;100.00;52944.84;5029659;28;20033;-68
2022/11/08 01:33:05;;;;;;;2.67;1.20;;;;;;;-140.72;100.00;52948.91;5031254;28;20029;-67
2022/11/08 01:35:32;;;;;;;1.52;1.02;;;;;;;-140.72;100.00;52959.06;5030134;28;20508;-67
2022/11/08 01:37:58;;;;;;;1.02;0.60;;;;;;;-140.72;100.00;52987.47;5030669;28;20033;-68
2022/11/08 01:40:24;;;;;;;6.28;1.30;;;;;;;-140.72;100.00;52981.38;5030158;28;20091;-66
2022/11/08 01:42:50;;;;;;;6.15;1.40;;;;;;;-140.72;100.00;52963.13;5031377;28;20228;-67
2022/11/08 01:45:54;;;;;;;2.50;1.20;;;;;;;-140.72;100.00;52926.59;5030002;28;20069;-68
2022/11/08 01:48:19;;;;;;;1.05;0.80;;;;;;;-140.72;100.00;52971.22;5030433;28;20437;-67
2022/11/08 01:50:45;;;;;;;5.20;1.38;;;;;;;-140.72;100.00;53034.16;5028696;28;20033;-68
2022/11/08 01:53:11;;;;;;;2.45;0.90;;;;;;;-140.72;100.00;52983.41;5022577;28;20403;-67
2022/11/08 01:55:36;;;;;;;4.53;1.48;;;;;;;-140.72;100.00;52995.59;5029097;28;20230;-67
2022/11/08 01:58:07;;;;;;;2.38;1.25;;;;;;;-140.72;100.00;52969.19;5029454;28;20034;-66
2022/11/08 02:00:36;;;;;;;2.40;0.73;;;;;;;-140.72;100.00;53001.66;5030361;28;20493;-67
2022/11/08 02:03:04;;;;;;;4.88;1.45;;;;;;;-140.72;100.00;53056.47;5029962;28;20088;-67
2022/11/08 02:05:30;;;;;;;2.00;1.23;;;;;;;-140.72;100.00;52977.31;5025941;28;20030;-68
2022/11/08 02:08:09;;;;;;;1.85;1.08;;;;;;;-140.72;100.00;52983.41;5027618;28;20103;-68
2022/11/08 02:10:41;;;;;;;2.40;1.00;;;;;;;-140.72;100.00;52959.06;5029741;28;20029;-67
2022/11/08 02:13:09;;;;;;;2.92;1.30;;;;;;;-140.72;100.00;52977.31;5030424;28;20276;-68
2022/11/08 02:15:35;;;;;;;3.40;1.45;;;;;;;-140.72;100.00;52995.59;5030100;28;20060;-68
2022/11/08 02:18:01;;;;;;;2.50;0.90;;;;;;;-140.72;100.00;52987.47;5029172;28;20554;-68
2022/11/08 02:20:26;;;;;;;5.75;1.33;;;;;;;-140.72;100.00;52948.91;5028743;28;20033;-68
2022/11/08 02:23:03;;;;;;;6.88;1.20;;;;;;;-140.72;100.00;52995.59;5028461;28;20457;-68
2022/11/08 02:25:29;;;;;;;2.58;0.80;;;;;;;-140.72;100.00;52991.53;5030257;28;20033;-68
2022/11/08 02:27:55;;;;;;;3.60;1.20;;;;;;;-140.72;100.00;52995.59;5029244;28;20541;-66
2022/11/08 02:30:20;;;;;;;6.70;1.05;;;;;;;-140.72;100.00;52946.88;5029001;28;20037;-68
2022/11/08 02:32:46;;;;;;;1.92;1.23;;;;;;;-140.72;100.00;52950.94;5030441;28;20386;-68
2022/11/08 02:35:15;;;;;;;1.95;1.23;;;;;;;-140.72;100.00;52952.97;5030290;28;20087;-66
2022/11/08 02:37:41;;;;;;;;;;;;;;;-140.72;100.00;52981.38;5029831;28;20041;-67
2022/11/08 02:40:07;;;;;;;3.05;0.98;;;;;;;-140.72;100.00;52971.22;5029965;28;19909;-67
2022/11/08 02:42:32;;;;;;;2.47;1.00;;;;;;;-140.72;100.00;52934.69;5030209;28;20108;-67
2022/11/08 02:44:58;;;;;;;3.70;1.35;;;;;;;-140.72;100.00;53015.88;5028137;28;20071;-67
2022/11/08 02:47:23;;;;;;;3.33;1.42;;;;;;;-140.72;100.00;52985.44;5030064;28;20091;-67
2022/11/08 02:49:49;;;;;;;8.45;1.67;;;;;;;-140.72;100.00;52989.50;5028611;28;20033;-68
2022/11/08 02:52:15;;;;;;;1.60;1.13;;;;;;;-140.72;100.00;52959.06;5024542;28;20025;-67
2022/11/08 02:54:41;;;;;;;5.70;0.90;;;;;;;-140.72;100.00;52967.16;5029283;28;20029;-67
2022/11/08 02:57:06;;;;;;;1.70;1.00;;;;;;;-140.72;100.00;52997.63;5029901;28;20364;-67
2022/11/08 02:59:31;;;;;;;5.45;1.27;;;;;;;-140.72;100.00;52971.22;5028617;28;20120;-67
2022/11/08 03:01:57;;;;;;;2.08;1.02;;;;;;;-140.72;100.00;52995.59;5029210;28;20033;-68
2022/11/08 03:04:22;;;;;;;2.47;1.40;;;;;;;-140.72;100.00;52983.41;5029998;28;20029;-67
2022/11/08 03:06:47;;;;;;;2.45;1.17;;;;;;;-140.72;100.00;52995.59;5029660;28;20510;-67
2022/11/08 03:09:13;;;;;;;4.82;1.15;;;;;;;-140.72;100.00;53011.81;5029772;28;20395;-67
2022/11/08 03:11:38;;;;;;;4.90;1.25;;;;;;;-140.72;100.00;52995.59;5029638;28;20030;-67
2022/11/08 03:14:04;;;;;;;3.08;1.52;;;;;;;-140.72;100.00;52977.31;5029063;28;20028;-68
2022/11/08 03:16:29;;;;;;;3.05;0.93;;;;;;;-140.72;100.00;52987.47;5030068;28;20429;-67
2022/11/08 03:18:54;;;;;;;2.50;1.27;;;;;;;-140.72;100.00;52969.19;5028491;28;20025;-67
2022/11/08 03:21:20;;;;;;;1.85;0.90;;;;;;;-140.72;100.00;52971.22;5029778;28;20025;-67
2022/11/08 03:23:45;;;;;;;3.15;1.10;;;;;;;-140.72;100.00;53003.69;5029302;28;20079;-66
2022/11/08 03:26:11;;;;;;;9.95;1.33;;;;;;;-140.72;100.00;53005.72;5028232;28;20526;-67
2022/11/08 03:28:37;;;;;;;2.50;0.63;;;;;;;-140.72;100.00;52995.59;5029821;28;20013;-67
2022/11/08 03:31:02;;;;;;;4.30;1.05;;;;;;;-140.72;100.00;52975.28;5029306;28;20360;-68
2022/11/08 03:33:28;;;;;;;2.83;0.98;;;;;;;-140.72;100.00;52975.28;5025115;28;20053;-68
2022/11/08 03:35:53;;;;;;;2.03;0.88;;;;;;;-140.72;100.00;52995.59;5029209;28;20030;-67
2022/11/08 03:38:18;;;;;;;5.75;1.30;;;;;;;-140.72;100.00;53001.66;5026871;28;20410;-67
2022/11/08 03:40:45;;;;;;;3.65;1.70;;;;;;;-140.72;100.00;53015.88;5027900;28;20022;-66
2022/11/08 03:43:10;;;;;;;3.30;1.30;;;;;;;-140.72;100.00;53015.88;5029810;28;20029;-67
2022/11/08 03:45:36;;;;;;;3.05;1.13;;;;;;;-140.72;100.00;52959.06;5029108;28;20487;-67
2022/11/08 03:48:01;;;;;;;1.77;1.10;;;;;;;-140.72;100.00;53009.78;5028550;28;20450;-68
2022/11/08 03:50:27;;;;;;;4.72;1.20;;;;;;;-140.72;100.00;52983.41;5028896;28;20042;-67
2022/11/08 03:52:54;;;;;;;1.98;0.95;;;;;;;-140.72;100.00;52979.34;5025152;28;20132;-66
2022/11/08 03:55:22;;;;;;;2.60;0.82;;;;;;;-140.72;100.00;52987.47;5026769;28;20037;-67
2022/11/08 03:57:49;;;;;;;1.17;0.80;;;;;;;-140.72;100.00;53021.97;5028623;28;20223;-66
2022/11/08 04:00:17;;;;;;;4.30;1.25;;;;;;;-140.72;100.00;53019.94;5028179;28;20037;-67
2022/11/08 04:02:43;;;;;;;9.80;1.63;;;;;;;-140.72;100.00;52991.53;5027963;28;20037;-67
2022/11/08 04:05:10;;;;;;;3.25;1.30;;;;;;;-140.72;100.00;52971.22;5029159;28;20025;-68
2022/11/08 04:07:36;;;;;;;3.00;0.88;;;;;;;-140.72;100.00;52991.53;5028907;28;20053;-67
2022/11/08 04:10:03;;;;;;;3.28;1.13;;;;;;;-140.72;100.00;53009.78;5028324;28;20064;-67
2022/11/08 04:15:15;;;;;;;2.33;0.85;;;;;;;-140.72;100.00;53003.69;5021885;28;20514;-68
2022/11/08 04:23:37;;;;;;;1.63;1.05;;;;;;;-140.72;100.00;52991.53;5028424;28;20045;-68
2022/11/08 04:26:06;;;;;;;2.15;1.23;;;;;;;-140.72;100.00;52987.47;5017542;28;20025;-68
2022/11/08 04:28:34;;;;;;;2.47;1.20;;;;;;;-140.72;100.00;52971.22;5029127;28;20040;-66
2022/11/08 04:31:05;;;;;;;3.50;1.27;;;;;;;-140.72;100.00;52977.31;5027522;28;20029;-67
2022/11/08 04:33:31;;;;;;;3.53;1.20;;;;;;;-140.72;100.00;52987.47;5028705;28;20475;-67
2022/11/08 04:36:08;;;;;;;3.83;1.10;;;;;;;-140.72;100.00;52991.53;5028271;28;20041;-68
2022/11/08 04:38:34;;;;;;;3.03;1.02;;;;;;;-140.72;100.00;52987.47;5028525;28;20095;-67
2022/11/08 04:41:09;;;;;;;1.67;0.98;;;;;;;-140.72;100.00;52952.97;5028717;28;20029;-67
2022/11/08 04:43:34;;;;;;;1.33;0.80;;;;;;;-140.72;100.00;52983.41;5028918;28;20025;-68
2022/11/08 04:46:06;;;;;;;1.98;1.13;;;;;;;-140.72;100.00;52987.47;5028280;28;20044;-66
2022/11/08 04:48:31;;;;;;;0.80;0.65;;;;;;;-140.72;100.00;53013.84;5029332;28;20025;-69
2022/11/08 04:51:09;;;;;;;3.70;1.40;;;;;;;-140.72;100.00;52971.22;5028383;28;20053;-67
2022/11/08 04:53:35;;;;;;;2.08;0.70;;;;;;;-140.72;100.00;52989.50;5022091;28;20034;-67
2022/11/08 04:56:03;;;;;;;5.82;1.08;;;;;;;-140.72;100.00;52975.28;5028429;28;20029;-66
2022/11/08 04:58:35;;;;;;;4.30;1.92;;;;;;;-140.72;100.00;52989.50;5027908;28;20237;-68
2022/11/08 05:01:02;;;;;;;2.03;1.08;;;;;;;-140.72;100.00;52967.16;5027958;28;20044;-66
2022/11/08 05:03:28;;;;;;;3.00;0.90;;;;;;;-140.72;100.00;52993.56;5029198;28;20037;-67
2022/11/08 05:05:54;;;;;;;4.28;1.20;;;;;;;-140.72;100.00;52973.25;5027478;28;20124;-66
2022/11/08 05:08:19;;;;;;;1.58;0.80;;;;;;;-140.72;100.00;52957.03;5029530;28;20026;-67
2022/11/08 05:10:44;;;;;;;1.65;0.85;;;;;;;-140.72;100.00;52999.66;5028615;28;20022;-67
2022/11/08 05:13:10;;;;;;;3.78;1.73;;;;;;;-140.72;100.00;53017.91;5030964;28;20029;-67
2022/11/08 05:15:35;;;;;;;1.35;0.60;;;;;;;-140.72;100.00;52989.50;5031827;28;20459;-68
2022/11/08 05:18:01;;;;;;;1.38;0.60;;;;;;;-140.72;100.00;52985.44;5032608;28;20293;-68
2022/11/08 05:23:23;;;;;;;1.58;0.77;;;;;;;-140.72;100.00;52979.34;5032470;28;20036;-67
2022/11/08 05:25:48;;;;;;;1.85;1.05;;;;;;;-140.72;100.00;52989.50;5031891;28;20044;-67
2022/11/08 05:28:14;;;;;;;3.72;1.10;;;;;;;-140.72;100.00;52981.38;5031842;28;20022;-68
2022/11/08 05:30:40;;;;;;;2.63;0.93;;;;;;;-140.72;100.00;52967.16;5032221;28;20468;-68
2022/11/08 05:33:05;;;;;;;1.83;1.00;;;;;;;-140.72;100.00;53007.75;5016922;28;20021;-67
2022/11/08 05:35:33;;;;;;;2.10;1.05;;;;;;;-140.72;100.00;52961.09;5032029;28;20029;-68
2022/11/08 05:37:58;;;;;;;3.03;0.90;;;;;;;-140.72;100.00;52963.13;5031628;28;20399;-67
2022/11/08 05:40:23;;;;;;;1.75;0.82;;;;;;;-140.72;100.00;52975.28;5031009;28;20022;-66
2022/11/08 05:42:49;;;;;;;1.67;0.98;;;;;;;-140.72;100.00;52991.53;5026861;28;20030;-67
2022/11/08 05:45:14;;;;;;;2.05;0.93;;;;;;;-140.72;100.00;52944.84;5031682;28;20517;-67
2022/11/08 05:47:43;;;;;;;2.13;0.85;;;;;;;-140.72;100.00;52991.53;5031272;28;20029;-66
2022/11/08 05:50:08;;;;;;;2.03;1.02;;;;;;;-140.72;100.00;52989.50;5031973;28;20057;-65
2022/11/08 05:52:34;;;;;;;1.05;0.85;;;;;;;-140.72;100.00;53001.66;5031454;28;20042;-66
2022/11/08 05:54:59;;;;;;;2.03;0.63;;;;;;;-140.72;100.00;52967.16;5030817;28;20025;-66
2022/11/08 05:57:24;;;;;;;1.42;0.90;;;;;;;-140.72;100.00;53007.75;5031799;28;20109;-66
2022/11/08 05:59:50;;;;;;;1.67;0.70;;;;;;;-140.72;100.00;53001.66;5031104;28;20069;-65
2022/11/08 06:02:16;;;;;;;1.80;0.98;;;;;;;-140.72;100.00;52963.13;5030788;28;20041;-67
2022/11/08 06:04:42;;;;;;;1.75;0.93;;;;;;;-140.72;100.00;53005.72;5030722;28;20508;-66
2022/11/08 06:07:07;;;;;;;1.42;0.82;;;;;;;-140.72;100.00;52999.66;5030487;28;20061;-66
2022/11/08 06:09:32;;;;;;;3.45;1.77;;;;;;;-140.72;100.00;53009.78;5029760;28;20028;-66
2022/11/08 06:11:58;;;;;;;3.42;0.98;;;;;;;-140.72;100.00;53011.81;5029694;28;20091;-67
2022/11/08 06:14:23;;;;;;;1.83;0.90;;;;;;;-140.72;100.00;53013.84;5029847;28;20323;-67
2022/11/08 06:16:49;;;;;;;1.55;0.70;;;;;;;-140.72;100.00;53015.88;5027280;28;20080;-67
2022/11/08 06:19:14;;;;;;;1.60;0.68;;;;;;;-140.72;100.00;53003.69;5030113;28;20034;-67
2022/11/08 06:21:39;;;;;;;1.50;0.80;;;;;;;-140.72;100.00;52987.47;5030682;28;20028;-66
2022/11/08 06:24:05;;;;;;;1.13;0.73;;;;;;;-140.72;100.00;52938.75;5027291;28;20041;-66
2022/11/08 06:26:30;;;;;;;3.05;1.10;;;;;;;-140.72;100.00;52950.94;5030950;28;20025;-66
2022/11/08 06:28:56;;;;;;;2.83;1.00;;;;;;;-140.72;100.00;52952.97;5020451;28;20111;-66
2022/11/08 06:31:21;;;;;;;1.60;0.70;;;;;;;-140.72;100.00;53003.69;5030468;28;20067;-67
2022/11/08 06:33:47;;;;;;;3.00;0.90;;;;;;;-140.72;100.00;52979.34;5031337;28;20033;-67
2022/11/08 06:36:12;;;;;;;1.30;0.80;;;;;;;-140.72;100.00;52957.03;5029221;28;20029;-66
2022/11/08 06:38:37;;;;;;;1.25;0.70;;;;;;;-140.72;100.00;52979.34;5027932;28;20037;-67
2022/11/08 06:41:03;;;;;;;1.08;0.55;;;;;;;-140.72;100.00;52995.59;5029810;28;20028;-68
2022/11/08 06:43:28;;;;;;;1.08;0.73;;;;;;;-140.72;100.00;52952.97;5029933;28;20029;-68
2022/11/08 06:45:59;;;;;;;2.10;0.82;;;;;;;-140.72;100.00;52967.16;5030029;28;20104;-68
2022/11/08 06:48:24;;;;;;;2.38;0.50;;;;;;;-140.72;100.00;52955.00;5028640;28;20021;-68
2022/11/08 06:50:49;;;;;;;1.75;0.82;;;;;;;-140.72;100.00;52965.16;5029498;28;20498;-68
2022/11/08 06:53:15;;;;;;;0.98;0.70;;;;;;;-140.72;100.00;52961.09;5030281;28;20033;-67
2022/11/08 06:55:40;;;;;;;1.40;0.70;;;;;;;-140.72;100.00;52967.16;5030163;28;20025;-68
2022/11/08 06:58:06;;;;;;;3.30;0.52;;;;;;;-140.72;100.00;52969.19;5029254;28;20113;-66
2022/11/08 07:00:31;;;;;;;4.38;0.70;;;;;;;-140.72;100.00;52946.88;5033308;28;20041;-67
2022/11/08 07:02:59;;;;;;;1.73;0.70;;;;;;;-140.72;100.00;52979.34;5035631;28;20029;-68
2022/11/08 07:05:26;;;;;;;0.80;0.47;;;;;;;-140.72;100.00;52946.88;5029111;28;20447;-67
2022/11/08 07:07:52;;;;;;;2.13;0.80;;;;;;;-140.72;100.00;52983.41;5027150;28;20063;-68
2022/11/08 07:10:18;;;;;;;1.48;0.65;;;;;;;-140.72;100.00;52934.69;5028663;28;20036;-68
2022/11/08 07:12:44;;;;;;;1.77;0.80;;;;;;;-140.72;100.00;52948.91;5010839;28;20026;-67
2022/11/08 07:15:10;;;;;;;3.58;1.27;;;;;;;-140.72;100.00;52950.94;5029665;28;20029;-68
2022/11/08 07:17:35;;;;;;;3.05;0.77;;;;;;;-140.72;100.00;52942.81;5028508;28;20025;-67
2022/11/08 07:20:00;;;;;;;1.75;0.82;;;;;;;-140.72;100.00;52946.88;5028850;28;20021;-67
2022/11/08 07:22:26;;;;;;;1.75;0.70;;;;;;;-140.72;100.00;52942.81;5029367;28;20025;-66
2022/11/08 07:24:54;;;;;;;1.35;0.68;;;;;;;-140.72;100.00;52969.19;5029561;28;20040;-67
2022/11/08 07:27:19;;;;;;;3.90;1.00;;;;;;;-140.72;100.00;52977.31;5027999;28;20030;-66
2022/11/08 07:29:45;;;;;;;1.75;0.70;;;;;;;-140.72;100.00;52969.19;5029734;28;20040;-67
2022/11/08 07:32:10;;;;;;;1.33;0.65;;;;;;;-140.72;100.00;52969.19;5026123;28;20083;-67
2022/11/08 07:34:35;;;;;;;2.03;1.23;;;;;;;-140.72;100.00;52987.47;5029117;28;20053;-67
2022/11/08 07:37:01;;;;;;;2.05;0.70;;;;;;;-140.72;100.00;52977.31;5026819;28;20116;-67
2022/11/08 07:39:26;;;;;;;2.00;0.90;;;;;;;-140.72;100.00;52930.66;5027374;28;20739;-67
2022/11/08 07:41:51;;;;;;;1.88;0.80;;;;;;;-140.72;100.00;52938.75;5022328;28;20029;-67
2022/11/08 07:44:17;;;;;;;1.30;0.68;;;;;;;-140.72;100.00;52926.59;5028344;28;20036;-67
2022/11/08 07:46:42;;;;;;;1.45;0.90;;;;;;;-140.72;100.00;52932.66;5011472;28;20021;-67
2022/11/08 07:49:07;;;;;;;1.58;0.88;;;;;;;-140.72;100.00;52922.53;5029034;28;20042;-67
2022/11/08 07:51:33;;;;;;;1.50;1.10;;;;;;;-140.72;100.00;52926.59;5030149;28;20096;-67
2022/11/08 07:53:58;;;;;;;0.68;0.50;;;;;;;-140.72;100.00;52930.66;5034609;28;20083;-67
2022/11/08 07:56:24;;;;;;;1.38;1.00;;;;;;;-140.72;100.00;52932.66;5028634;28;20040;-68
2022/11/08 07:58:51;;;;;;;2.85;1.05;;;;;;;-140.72;100.00;52920.50;5028543;28;20112;-68
2022/11/08 08:01:16;;;;;;;3.05;1.33;;;;;;;-140.72;100.00;52955.00;5028918;28;20064;-68
2022/11/08 08:03:41;;;;;;;4.90;0.93;;;;;;;-140.72;100.00;52934.69;5023292;28;20052;-67
2022/11/08 08:06:07;;;;;;;2.88;0.82;;;;;;;-140.72;100.00;52936.72;5031166;28;20114;-68
2022/11/08 08:08:32;;;;;;;2.50;0.80;;;;;;;-140.72;100.00;52967.16;5028943;28;20291;-67
2022/11/08 08:10:59;;;;;;;2.25;0.70;;;;;;;-140.72;100.00;52977.31;5029661;28;20029;-67
2022/11/08 08:13:25;;;;;;;0.70;0.40;;;;;;;-140.72;100.00;52930.66;5028779;28;20417;-66
2022/11/08 08:15:50;;;;;;;1.02;0.50;;;;;;;-140.72;100.00;52938.75;5028447;28;20029;-68
2022/11/08 08:18:19;;;;;;;1.00;0.55;;;;;;;-140.72;100.00;52942.81;5030041;28;20026;-67
2022/11/08 08:20:45;;;;;;;1.33;0.67;;;;;;;-140.72;100.00;52902.22;5029889;28;20017;-66
2022/11/08 08:23:11;;;;;;;0.88;0.63;;;;;;;-140.72;100.00;52916.44;5028334;28;20080;-67
2022/11/08 08:25:53;;;;;;;0.95;0.50;;;;;;;-140.72;100.00;52938.75;5022444;28;20438;-67
2022/11/08 08:28:18;;;;;;;1.00;0.60;;;;;;;-140.72;100.00;52969.19;5020215;28;20161;-66
2022/11/08 08:30:44;;;;;;;2.85;0.70;;;;;;;-140.72;100.00;52938.75;5026331;28;20542;-68
2022/11/08 08:33:14;;;;;;;1.10;0.70;;;;;;;-140.72;100.00;52918.47;5028006;28;20038;-66
2022/11/08 08:35:42;;;;;;;1.35;0.93;;;;;;;-140.72;100.00;52950.94;5026040;28;20021;-66
2022/11/08 08:38:09;;;;;;;1.67;0.70;;;;;;;-140.72;100.00;52922.53;5029007;28;20354;-67
2022/11/08 08:40:34;;;;;;;1.85;0.77;;;;;;;-140.72;100.00;52906.28;5028646;28;20025;-67
2022/11/08 08:43:02;;;;;;;1.10;0.70;;;;;;;-140.72;100.00;52896.16;5028844;28;20120;-68
2022/11/08 08:45:28;;;;;;;2.80;0.70;;;;;;;-140.72;100.00;52950.94;5029202;28;20447;-67
2022/11/08 08:47:55;;;;;;;0.90;0.32;;;;;;;-140.72;100.00;52892.09;5029966;28;20037;-67
2022/11/08 09:01:10;;;;;;;2.10;0.77;;;;;;;-140.72;100.00;52879.91;5005309;28;20517;-66
2022/11/08 09:03:36;;;;;;;1.55;0.57;;;;;;;-140.72;100.00;52908.31;5032688;28;20033;-67
2022/11/08 09:46:49;;;;;;;3.13;0.75;;;;;;;-140.72;100.00;52863.66;5030525;28;20123;-64
2022/11/08 10:18:30;;;;;;;1.20;0.75;;;;;;;-140.72;100.00;52888.03;5057675;28;20403;-72
2022/11/08 10:21:27;;;;;;;1.10;0.68;;;;;;;-140.72;100.00;52918.47;5055756;28;20080;-71
2022/11/08 10:24:17;;;;;;;3.25;1.13;;;;;;;-140.72;100.00;52904.25;5050660;28;20087;-73
2022/11/08 10:26:45;;;;;;;;;;;;;;;-140.72;100.00;52918.47;5056292;28;20025;-71
2022/11/08 10:29:25;;;;;;;1.33;0.80;;;;;;;-140.72;100.00;52914.41;5058705;28;19943;-71
2022/11/08 10:32:13;;;;;;;1.80;0.88;;;;;;;-140.72;96.41;52910.34;5055289;28;20030;-71
2022/11/08 10:35:08;;;;;;;2.40;0.95;;;;;;;-140.72;90.13;52902.22;5053889;28;20390;-71
2022/11/08 10:37:33;;;;;;;4.43;0.70;;;;;;;-140.72;88.10;52873.81;5041592;28;20041;-71
2022/11/08 10:40:16;;;;;;;1.55;0.77;;;;;;;-140.72;84.17;52896.16;5049083;28;20028;-71
2022/11/08 10:42:50;;;;;;;8.27;0.98;;;;;;;-140.72;77.36;52861.66;5049600;28;20024;-71
2022/11/08 10:45:15;;;;;;;2.72;1.00;;;;;;;-140.72;74.16;52859.63;5050085;28;20033;-71
2022/11/08 10:47:45;;;;;;;0.95;0.60;;;;;;;-140.72;68.99;52853.53;5053099;28;20029;-71
2022/11/08 10:50:16;;;;;;;1.15;0.57;;;;;;;-140.72;65.54;52837.28;5051718;28;20021;-71
2022/11/08 10:52:52;;;;;;;1.83;0.68;;;;;;;-140.72;55.78;52871.78;5053570;28;20029;-71
2022/11/08 10:55:29;;;;;;;3.03;0.57;;;;;;;-140.72;45.45;52855.56;5040415;28;20112;-71
2022/11/08 10:57:55;;;;;;;1.20;0.65;;;;;;;-140.72;37.70;52841.34;5049468;28;20413;-70
2022/11/08 11:00:20;;;;;;;1.55;0.80;;;;;;;-140.72;31.74;52814.97;5053716;28;20017;-71
2022/11/08 11:02:53;;;;;;;1.85;0.80;;;;;;;-140.72;25.46;52843.38;5049337;28;20062;-71
2022/11/08 11:05:25;;;;;;;2.03;0.80;;;;;;;-140.72;23.22;52802.78;5049719;28;20094;-69
2022/11/08 11:07:58;;;;;;;4.65;0.90;;;;;;;-140.72;19.53;52788.59;5048665;28;20041;-69
2022/11/08 11:10:29;;;;;;;3.53;1.23;;;;;;;-140.72;17.00;52865.69;5047117;28;20029;-69
2022/11/08 11:13:18;;;;;;;3.63;0.43;;;;;;;-140.72;14.64;52865.69;5043241;28;20038;-69
2022/11/08 11:16:04;;;;;;;1.02;0.70;;;;;;;-140.72;12.63;52810.91;5043124;28;20120;-76
2022/11/08 11:19:00;;;;;;;4.97;0.82;;;;;;;-140.72;13.20;52823.09;5040518;28;20041;-70
2022/11/08 11:21:34;;;;;;;1.55;0.60;;;;;;;-140.72;9.50;52833.22;5050571;28;20040;-70
2022/11/08 11:24:35;;;;;;;2.10;0.85;;;;;;;-140.72;8.28;52827.16;5049191;28;20482;-70
2022/11/08 11:27:04;;;;;;;6.30;0.98;;;;;;;-140.72;7.47;52831.19;5016011;28;20041;-70
2022/11/08 11:29:35;;;;;;;2.55;0.93;;;;;;;-140.72;5.48;52802.78;5034581;28;20025;-69
2022/11/08 11:32:21;;;;;;;2.58;1.17;;;;;;;-140.72;5.99;52827.16;5033233;28;20030;-69
2022/11/08 11:34:56;;;;;;;1.95;0.88;;;;;;;-140.72;2.39;52847.44;5035118;28;20030;-68
2022/11/08 11:37:44;;;;;;;3.35;1.08;;;;;;;-140.72;1.37;52812.94;5034408;28;20067;-69
2022/11/08 11:40:32;;;;;;;1.27;0.60;;;;;;;-140.72;1.27;52823.09;5025496;28;20040;-71
2022/11/08 11:43:10;;;;;;;4.57;0.80;;;;;;;-140.72;0.10;52821.06;5032096;28;20048;-70
2022/11/08 11:45:44;;;;;;;4.55;1.02;;;;;;;-140.72;0.00;52835.25;5048946;28;20029;-72
2022/11/08 11:48:20;;;;;;;1.08;0.60;;;;;;;-140.72;0.00;52865.69;5036354;28;20025;-69
2022/11/08 11:50:49;;;;;;;3.30;1.00;;;;;;;-140.72;0.00;52817.00;5037925;28;20549;-69
2022/11/08 11:53:21;;;;;;;2.35;0.82;;;;;;;-140.72;0.00;52790.63;5033973;28;20026;-70
2022/11/08 11:56:16;;;;;;;1.88;0.70;;;;;;;-140.72;0.00;52829.19;5028788;28;20475;-70
2022/11/08 11:59:14;;;;;;;1.65;0.73;;;;;;;-140.72;0.00;52756.13;5022190;28;20034;-69
2022/11/08 12:02:19;;;;;;;1.58;0.65;;;;;;;-140.72;0.00;52812.94;5038664;28;20030;-70
2022/11/08 12:05:03;;;;;;;1.50;0.63;;;;;;;-140.72;0.00;52784.53;5025817;28;20138;-70
2022/11/08 12:07:31;;;;;;;2.97;0.50;;;;;;;-140.72;0.00;52784.53;5031991;28;20123;-70
2022/11/08 12:10:23;;;;;;;1.45;0.50;;;;;;;-140.72;0.00;52788.59;5029275;28;20025;-71
2022/11/08 12:12:54;;;;;;;1.15;0.60;;;;;;;-140.72;0.00;52764.25;5029686;28;20021;-72
2022/11/08 12:15:31;;;;;;;3.05;0.82;;;;;;;-140.72;0.00;52798.72;5031946;28;20033;-70
2022/11/08 12:18:05;;;;;;;2.70;0.85;;;;;;;-140.72;0.00;52827.16;5035285;28;20072;-70
2022/11/08 12:20:52;;;;;;;1.42;0.73;;;;;;;-140.72;0.00;52823.09;5035855;28;20470;-72
2022/11/08 12:23:43;;;;;;;1.58;1.15;;;;;;;-140.72;0.00;52762.22;5023454;28;20037;-70
2022/11/08 12:26:14;;;;;;;2.97;0.77;;;;;;;-140.72;0.00;52766.25;5032410;28;20044;-70
2022/11/08 12:28:55;;;;;;;1.67;0.85;;;;;;;-140.72;0.00;52788.59;5034644;28;20032;-70
2022/11/08 12:31:24;;;;;;;0.93;0.73;;;;;;;-140.72;0.00;52800.75;5038843;28;20470;-69
2022/11/08 12:34:01;;;;;;;0.98;0.70;;;;;;;-140.72;0.00;52806.84;5035008;28;20071;-70
2022/11/08 12:36:26;;;;;;;1.77;0.77;;;;;;;-140.72;0.00;52764.25;5034579;28;20364;-69
2022/11/08 12:39:12;;;;;;;1.83;0.75;;;;;;;-140.72;0.00;52727.72;5034402;28;20021;-69
2022/11/08 12:41:56;;;;;;;0.90;0.50;;;;;;;-140.72;0.00;52766.25;5028927;28;20036;-70
2022/11/08 12:44:41;;;;;;;1.77;0.60;;;;;;;-140.72;0.00;52831.19;5043376;28;20047;-71
2022/11/08 12:47:28;;;;;;;3.25;0.90;;;;;;;-140.72;0.00;52810.91;5035491;28;20367;-70
2022/11/08 12:49:56;;;;;;;1.02;0.60;;;;;;;-140.72;0.00;52825.13;5027024;28;20033;-70
2022/11/08 12:52:47;;;;;;;1.50;0.82;;;;;;;-140.72;0.00;52827.16;5029581;28;20034;-71
2022/11/08 12:55:27;;;;;;;1.90;0.85;;;;;;;-140.72;0.00;52821.06;5046907;28;20064;-70
2022/11/08 12:57:56;;;;;;;2.35;0.82;;;;;;;-140.72;0.00;52780.47;5030081;28;20029;-71
2022/11/08 13:00:21;;;;;;;1.20;0.73;;;;;;;-140.72;0.00;52792.66;5026836;28;20087;-69
2022/11/08 13:03:15;;;;;;;2.30;0.90;;;;;;;-140.72;0.00;52833.22;5029190;28;20100;-69